sensor_id;sensor_type;location;lat;lon;timestamp;P1;durP1;ratioP1;P2;durP2;ratioP2
16856;SDS011;8544;51.312;12.276;2022-12-18T00:02:08;9.57;;;8.87;;
16856;SDS011;8544;51.312;12.276;2022-12-18T00:08:48;7.30;;;7.00;;
16856;SDS011;8544;51.312;12.276;2022-12-18T00:12:05;7.63;;;7.33;;
16856;SDS011;8544;51.312;12.276;2022-12-18T00:14:42;7.63;;;7.37;;
16856;SDS011;8544;51.312;12.276;2022-12-18T00:20:07;10.73;;;9.93;;
16856;SDS011;8544;51.312;12.276;2022-12-18T00:22:59;8.97;;;8.57;;
16856;SDS011;8544;51.312;12.276;2022-12-18T00:25:32;9.27;;;8.87;;
16856;SDS011;8544;51.312;12.276;2022-12-18T00:28:09;8.70;;;8.40;;
16856;SDS011;8544;51.312;12.276;2022-12-18T00:34:01;9.07;;;8.67;;
16856;SDS011;8544;51.312;12.276;2022-12-18T00:36:52;8.83;;;8.03;;
16856;SDS011;8544;51.312;12.276;2022-12-18T00:39:53;9.13;;;8.73;;
16856;SDS011;8544;51.312;12.276;2022-12-18T00:42:52;10.70;;;10.10;;
16856;SDS011;8544;51.312;12.276;2022-12-18T00:45:53;9.43;;;9.03;;
16856;SDS011;8544;51.312;12.276;2022-12-18T00:48:29;9.83;;;9.33;;
16856;SDS011;8544;51.312;12.276;2022-12-18T00:51:00;10.07;;;9.57;;
16856;SDS011;8544;51.312;12.276;2022-12-18T00:54:05;10.00;;;9.60;;
16856;SDS011;8544;51.312;12.276;2022-12-18T00:56:37;10.83;;;10.33;;
16856;SDS011;8544;51.312;12.276;2022-12-18T00:59:43;9.37;;;8.97;;
16856;SDS011;8544;51.312;12.276;2022-12-18T01:02:19;8.43;;;8.13;;
16856;SDS011;8544;51.312;12.276;2022-12-18T01:05:04;9.43;;;9.03;;
16856;SDS011;8544;51.312;12.276;2022-12-18T01:10:35;9.60;;;9.00;;
16856;SDS011;8544;51.312;12.276;2022-12-18T01:13:08;7.80;;;7.50;;
16856;SDS011;8544;51.312;12.276;2022-12-18T01:15:56;8.00;;;7.70;;
16856;SDS011;8544;51.312;12.276;2022-12-18T01:18:35;9.33;;;8.93;;
16856;SDS011;8544;51.312;12.276;2022-12-18T01:21:32;8.53;;;8.20;;
16856;SDS011;8544;51.312;12.276;2022-12-18T01:24:00;8.97;;;8.57;;
16856;SDS011;8544;51.312;12.276;2022-12-18T01:27:12;7.83;;;7.53;;
16856;SDS011;8544;51.312;12.276;2022-12-18T01:30:15;8.97;;;8.63;;
16856;SDS011;8544;51.312;12.276;2022-12-18T01:33:03;8.30;;;8.00;;
16856;SDS011;8544;51.312;12.276;2022-12-18T01:35:31;8.33;;;8.03;;
16856;SDS011;8544;51.312;12.276;2022-12-18T01:38:07;10.50;;;9.87;;
16856;SDS011;8544;51.312;12.276;2022-12-18T01:40:45;8.63;;;8.23;;
16856;SDS011;8544;51.312;12.276;2022-12-18T01:54:03;7.37;;;7.13;;
16856;SDS011;8544;51.312;12.276;2022-12-18T01:56:49;10.17;;;9.60;;
16856;SDS011;8544;51.312;12.276;2022-12-18T01:59:26;7.77;;;7.47;;
16856;SDS011;8544;51.312;12.276;2022-12-18T02:02:06;7.63;;;7.33;;
16856;SDS011;8544;51.312;12.276;2022-12-18T02:10:54;8.60;;;8.13;;
16856;SDS011;8544;51.312;12.276;2022-12-18T02:13:38;9.13;;;8.60;;
16856;SDS011;8544;51.312;12.276;2022-12-18T02:16:16;7.37;;;7.03;;
16856;SDS011;8544;51.312;12.276;2022-12-18T02:18:51;7.73;;;7.50;;
16856;SDS011;8544;51.312;12.276;2022-12-18T02:21:28;7.63;;;7.43;;
16856;SDS011;8544;51.312;12.276;2022-12-18T02:24:13;7.40;;;7.20;;
16856;SDS011;8544;51.312;12.276;2022-12-18T02:26:48;8.87;;;8.47;;
16856;SDS011;8544;51.312;12.276;2022-12-18T02:29:24;12.50;;;11.47;;
16856;SDS011;8544;51.312;12.276;2022-12-18T02:32:24;7.90;;;7.63;;
16856;SDS011;8544;51.312;12.276;2022-12-18T02:34:55;6.23;;;6.07;;
16856;SDS011;8544;51.312;12.276;2022-12-18T02:37:23;8.67;;;8.37;;
16856;SDS011;8544;51.312;12.276;2022-12-18T02:39:52;11.03;;;10.43;;
16856;SDS011;8544;51.312;12.276;2022-12-18T02:42:23;8.03;;;7.73;;
16856;SDS011;8544;51.312;12.276;2022-12-18T02:44:51;7.30;;;7.10;;
16856;SDS011;8544;51.312;12.276;2022-12-18T02:47:20;8.80;;;8.33;;
16856;SDS011;8544;51.312;12.276;2022-12-18T02:49:51;8.93;;;8.63;;
16856;SDS011;8544;51.312;12.276;2022-12-18T02:52:23;8.37;;;8.07;;
16856;SDS011;8544;51.312;12.276;2022-12-18T02:54:55;8.40;;;8.10;;
16856;SDS011;8544;51.312;12.276;2022-12-18T02:57:28;7.97;;;7.67;;
16856;SDS011;8544;51.312;12.276;2022-12-18T03:00:01;11.07;;;10.47;;
16856;SDS011;8544;51.312;12.276;2022-12-18T03:02:31;8.50;;;8.20;;
16856;SDS011;8544;51.312;12.276;2022-12-18T03:05:01;8.73;;;8.40;;
16856;SDS011;8544;51.312;12.276;2022-12-18T03:07:33;8.97;;;8.50;;
16856;SDS011;8544;51.312;12.276;2022-12-18T03:10:01;8.10;;;7.80;;
16856;SDS011;8544;51.312;12.276;2022-12-18T03:12:32;7.87;;;7.63;;
16856;SDS011;8544;51.312;12.276;2022-12-18T03:15:02;7.50;;;7.30;;
16856;SDS011;8544;51.312;12.276;2022-12-18T03:17:31;8.30;;;8.00;;
16856;SDS011;8544;51.312;12.276;2022-12-18T03:20:02;9.50;;;9.07;;
16856;SDS011;8544;51.312;12.276;2022-12-18T03:22:30;7.80;;;7.53;;
16856;SDS011;8544;51.312;12.276;2022-12-18T03:24:59;7.00;;;6.80;;
16856;SDS011;8544;51.312;12.276;2022-12-18T03:27:28;10.17;;;9.67;;
16856;SDS011;8544;51.312;12.276;2022-12-18T03:29:59;7.53;;;7.33;;
16856;SDS011;8544;51.312;12.276;2022-12-18T03:32:34;8.27;;;7.97;;
16856;SDS011;8544;51.312;12.276;2022-12-18T03:35:03;8.10;;;7.80;;
16856;SDS011;8544;51.312;12.276;2022-12-18T03:37:32;10.00;;;9.17;;
16856;SDS011;8544;51.312;12.276;2022-12-18T03:40:00;10.03;;;8.93;;
16856;SDS011;8544;51.312;12.276;2022-12-18T03:42:28;9.60;;;9.10;;
16856;SDS011;8544;51.312;12.276;2022-12-18T03:45:01;8.03;;;7.73;;
16856;SDS011;8544;51.312;12.276;2022-12-18T03:47:31;10.43;;;9.77;;
16856;SDS011;8544;51.312;12.276;2022-12-18T03:50:04;8.63;;;8.33;;
16856;SDS011;8544;51.312;12.276;2022-12-18T03:52:39;8.77;;;8.47;;
16856;SDS011;8544;51.312;12.276;2022-12-18T03:55:08;8.53;;;8.23;;
16856;SDS011;8544;51.312;12.276;2022-12-18T03:57:36;9.20;;;8.80;;
16856;SDS011;8544;51.312;12.276;2022-12-18T04:00:07;8.57;;;8.27;;
16856;SDS011;8544;51.312;12.276;2022-12-18T04:02:35;7.80;;;7.50;;
16856;SDS011;8544;51.312;12.276;2022-12-18T04:05:05;7.47;;;7.27;;
16856;SDS011;8544;51.312;12.276;2022-12-18T04:07:34;8.60;;;8.00;;
16856;SDS011;8544;51.312;12.276;2022-12-18T04:10:03;7.90;;;7.60;;
16856;SDS011;8544;51.312;12.276;2022-12-18T04:12:31;7.93;;;7.63;;
16856;SDS011;8544;51.312;12.276;2022-12-18T04:14:58;8.97;;;8.57;;
16856;SDS011;8544;51.312;12.276;2022-12-18T04:17:27;7.30;;;7.10;;
16856;SDS011;8544;51.312;12.276;2022-12-18T04:19:55;8.20;;;7.80;;
16856;SDS011;8544;51.312;12.276;2022-12-18T04:22:23;7.77;;;7.53;;
16856;SDS011;8544;51.312;12.276;2022-12-18T04:24:50;7.37;;;7.17;;
16856;SDS011;8544;51.312;12.276;2022-12-18T04:27:18;7.40;;;7.20;;
16856;SDS011;8544;51.312;12.276;2022-12-18T04:29:46;7.90;;;7.60;;
16856;SDS011;8544;51.312;12.276;2022-12-18T04:32:14;7.83;;;7.60;;
16856;SDS011;8544;51.312;12.276;2022-12-18T04:34:43;7.70;;;7.50;;
16856;SDS011;8544;51.312;12.276;2022-12-18T04:37:10;7.17;;;6.97;;
16856;SDS011;8544;51.312;12.276;2022-12-18T04:39:38;8.27;;;7.63;;
16856;SDS011;8544;51.312;12.276;2022-12-18T04:42:06;7.73;;;7.50;;
16856;SDS011;8544;51.312;12.276;2022-12-18T04:44:34;7.90;;;7.50;;
16856;SDS011;8544;51.312;12.276;2022-12-18T04:47:01;8.40;;;8.03;;
16856;SDS011;8544;51.312;12.276;2022-12-18T04:49:29;7.90;;;7.60;;
16856;SDS011;8544;51.312;12.276;2022-12-18T04:51:58;13.20;;;8.23;;
16856;SDS011;8544;51.312;12.276;2022-12-18T04:54:26;7.90;;;7.63;;
16856;SDS011;8544;51.312;12.276;2022-12-18T04:56:58;9.53;;;9.03;;
16856;SDS011;8544;51.312;12.276;2022-12-18T04:59:25;8.87;;;8.57;;
16856;SDS011;8544;51.312;12.276;2022-12-18T05:01:53;7.63;;;7.43;;
16856;SDS011;8544;51.312;12.276;2022-12-18T05:04:21;9.00;;;8.60;;
16856;SDS011;8544;51.312;12.276;2022-12-18T05:06:49;8.93;;;8.53;;
16856;SDS011;8544;51.312;12.276;2022-12-18T05:09:19;8.93;;;8.33;;
16856;SDS011;8544;51.312;12.276;2022-12-18T05:11:46;9.47;;;9.07;;
16856;SDS011;8544;51.312;12.276;2022-12-18T05:14:14;13.97;;;12.97;;
16856;SDS011;8544;51.312;12.276;2022-12-18T05:16:42;8.97;;;8.67;;
16856;SDS011;8544;51.312;12.276;2022-12-18T05:19:11;8.30;;;8.00;;
16856;SDS011;8544;51.312;12.276;2022-12-18T05:21:38;8.90;;;8.50;;
16856;SDS011;8544;51.312;12.276;2022-12-18T05:24:06;10.10;;;9.70;;
16856;SDS011;8544;51.312;12.276;2022-12-18T05:26:35;10.43;;;10.00;;
16856;SDS011;8544;51.312;12.276;2022-12-18T05:29:03;8.90;;;8.57;;
16856;SDS011;8544;51.312;12.276;2022-12-18T05:31:31;8.10;;;7.80;;
16856;SDS011;8544;51.312;12.276;2022-12-18T05:34:05;10.00;;;9.60;;
16856;SDS011;8544;51.312;12.276;2022-12-18T05:36:33;9.20;;;8.80;;
16856;SDS011;8544;51.312;12.276;2022-12-18T05:39:00;10.93;;;10.37;;
16856;SDS011;8544;51.312;12.276;2022-12-18T05:41:28;8.73;;;8.43;;
16856;SDS011;8544;51.312;12.276;2022-12-18T05:43:57;11.33;;;10.60;;
16856;SDS011;8544;51.312;12.276;2022-12-18T05:46:25;7.73;;;7.50;;
16856;SDS011;8544;51.312;12.276;2022-12-18T05:48:53;8.87;;;8.57;;
16856;SDS011;8544;51.312;12.276;2022-12-18T05:51:21;8.63;;;8.33;;
16856;SDS011;8544;51.312;12.276;2022-12-18T05:53:49;8.77;;;8.37;;
16856;SDS011;8544;51.312;12.276;2022-12-18T05:56:20;8.10;;;7.80;;
16856;SDS011;8544;51.312;12.276;2022-12-18T05:58:50;9.57;;;9.17;;
16856;SDS011;8544;51.312;12.276;2022-12-18T06:01:22;8.23;;;7.93;;
16856;SDS011;8544;51.312;12.276;2022-12-18T06:03:50;8.50;;;8.20;;
16856;SDS011;8544;51.312;12.276;2022-12-18T06:06:18;7.40;;;7.20;;
16856;SDS011;8544;51.312;12.276;2022-12-18T06:08:46;8.23;;;7.93;;
16856;SDS011;8544;51.312;12.276;2022-12-18T06:11:16;8.73;;;8.43;;
16856;SDS011;8544;51.312;12.276;2022-12-18T06:13:44;9.67;;;9.13;;
16856;SDS011;8544;51.312;12.276;2022-12-18T06:16:12;11.37;;;10.87;;
16856;SDS011;8544;51.312;12.276;2022-12-18T06:18:42;9.33;;;9.00;;
16856;SDS011;8544;51.312;12.276;2022-12-18T06:21:09;11.07;;;10.33;;
16856;SDS011;8544;51.312;12.276;2022-12-18T06:23:37;8.93;;;8.53;;
16856;SDS011;8544;51.312;12.276;2022-12-18T06:26:06;9.87;;;9.47;;
16856;SDS011;8544;51.312;12.276;2022-12-18T06:28:34;9.57;;;9.23;;
16856;SDS011;8544;51.312;12.276;2022-12-18T06:31:02;8.07;;;7.77;;
16856;SDS011;8544;51.312;12.276;2022-12-18T06:33:30;8.90;;;8.60;;
16856;SDS011;8544;51.312;12.276;2022-12-18T06:36:01;8.53;;;8.23;;
16856;SDS011;8544;51.312;12.276;2022-12-18T06:38:29;10.17;;;9.77;;
16856;SDS011;8544;51.312;12.276;2022-12-18T06:40:57;8.80;;;8.50;;
16856;SDS011;8544;51.312;12.276;2022-12-18T06:43:24;9.63;;;9.23;;
16856;SDS011;8544;51.312;12.276;2022-12-18T06:45:57;10.93;;;10.43;;
16856;SDS011;8544;51.312;12.276;2022-12-18T06:48:25;8.17;;;7.87;;
16856;SDS011;8544;51.312;12.276;2022-12-18T06:50:52;9.00;;;8.60;;
16856;SDS011;8544;51.312;12.276;2022-12-18T06:53:22;8.00;;;7.70;;
16856;SDS011;8544;51.312;12.276;2022-12-18T06:55:49;9.43;;;9.03;;
16856;SDS011;8544;51.312;12.276;2022-12-18T06:58:17;10.67;;;10.23;;
16856;SDS011;8544;51.312;12.276;2022-12-18T07:00:45;7.10;;;6.90;;
16856;SDS011;8544;51.312;12.276;2022-12-18T07:03:13;10.00;;;9.60;;
16856;SDS011;8544;51.312;12.276;2022-12-18T07:05:40;8.60;;;8.30;;
16856;SDS011;8544;51.312;12.276;2022-12-18T07:08:08;8.43;;;8.13;;
16856;SDS011;8544;51.312;12.276;2022-12-18T07:10:42;7.60;;;7.40;;
16856;SDS011;8544;51.312;12.276;2022-12-18T07:13:15;8.07;;;7.77;;
16856;SDS011;8544;51.312;12.276;2022-12-18T07:15:43;7.60;;;7.40;;
16856;SDS011;8544;51.312;12.276;2022-12-18T07:18:11;10.03;;;9.63;;
16856;SDS011;8544;51.312;12.276;2022-12-18T07:20:39;7.60;;;7.40;;
16856;SDS011;8544;51.312;12.276;2022-12-18T07:23:07;9.13;;;8.83;;
16856;SDS011;8544;51.312;12.276;2022-12-18T07:25:35;9.70;;;9.30;;
16856;SDS011;8544;51.312;12.276;2022-12-18T07:28:04;11.73;;;10.60;;
16856;SDS011;8544;51.312;12.276;2022-12-18T07:30:32;10.67;;;10.27;;
16856;SDS011;8544;51.312;12.276;2022-12-18T07:33:00;9.23;;;8.93;;
16856;SDS011;8544;51.312;12.276;2022-12-18T07:35:30;8.90;;;8.60;;
16856;SDS011;8544;51.312;12.276;2022-12-18T07:37:57;7.33;;;7.13;;
16856;SDS011;8544;51.312;12.276;2022-12-18T07:40:27;7.33;;;7.13;;
16856;SDS011;8544;51.312;12.276;2022-12-18T07:42:55;8.77;;;8.37;;
16856;SDS011;8544;51.312;12.276;2022-12-18T07:45:24;7.70;;;7.47;;
16856;SDS011;8544;51.312;12.276;2022-12-18T07:47:52;7.27;;;7.07;;
16856;SDS011;8544;51.312;12.276;2022-12-18T07:50:20;7.60;;;7.33;;
16856;SDS011;8544;51.312;12.276;2022-12-18T07:52:47;8.53;;;8.23;;
16856;SDS011;8544;51.312;12.276;2022-12-18T07:55:15;8.27;;;7.97;;
16856;SDS011;8544;51.312;12.276;2022-12-18T07:57:43;7.40;;;7.00;;
16856;SDS011;8544;51.312;12.276;2022-12-18T08:00:24;7.87;;;7.57;;
16856;SDS011;8544;51.312;12.276;2022-12-18T08:02:53;9.97;;;9.57;;
16856;SDS011;8544;51.312;12.276;2022-12-18T08:05:20;10.33;;;9.83;;
16856;SDS011;8544;51.312;12.276;2022-12-18T08:07:48;8.70;;;8.40;;
16856;SDS011;8544;51.312;12.276;2022-12-18T08:10:16;8.87;;;8.57;;
16856;SDS011;8544;51.312;12.276;2022-12-18T08:12:43;8.27;;;7.97;;
16856;SDS011;8544;51.312;12.276;2022-12-18T08:15:11;7.57;;;7.27;;
16856;SDS011;8544;51.312;12.276;2022-12-18T08:17:40;6.07;;;5.93;;
16856;SDS011;8544;51.312;12.276;2022-12-18T08:20:08;7.83;;;7.53;;
16856;SDS011;8544;51.312;12.276;2022-12-18T08:22:36;7.33;;;6.97;;
16856;SDS011;8544;51.312;12.276;2022-12-18T08:25:04;6.80;;;6.60;;
16856;SDS011;8544;51.312;12.276;2022-12-18T08:27:32;6.93;;;6.73;;
16856;SDS011;8544;51.312;12.276;2022-12-18T08:30:00;6.60;;;6.40;;
16856;SDS011;8544;51.312;12.276;2022-12-18T08:32:28;7.37;;;6.97;;
16856;SDS011;8544;51.312;12.276;2022-12-18T08:34:57;6.43;;;6.23;;
16856;SDS011;8544;51.312;12.276;2022-12-18T08:37:25;6.57;;;6.37;;
16856;SDS011;8544;51.312;12.276;2022-12-18T08:39:52;7.33;;;7.03;;
16856;SDS011;8544;51.312;12.276;2022-12-18T08:42:20;6.63;;;6.43;;
16856;SDS011;8544;51.312;12.276;2022-12-18T08:45:05;5.97;;;5.83;;
16856;SDS011;8544;51.312;12.276;2022-12-18T08:47:33;6.07;;;5.87;;
16856;SDS011;8544;51.312;12.276;2022-12-18T08:50:02;5.73;;;5.63;;
16856;SDS011;8544;51.312;12.276;2022-12-18T08:52:31;6.27;;;6.07;;
16856;SDS011;8544;51.312;12.276;2022-12-18T08:54:58;5.30;;;5.20;;
16856;SDS011;8544;51.312;12.276;2022-12-18T08:57:26;5.83;;;5.73;;
16856;SDS011;8544;51.312;12.276;2022-12-18T08:59:54;5.30;;;5.20;;
16856;SDS011;8544;51.312;12.276;2022-12-18T09:02:22;5.43;;;5.33;;
16856;SDS011;8544;51.312;12.276;2022-12-18T09:04:50;5.60;;;5.40;;
16856;SDS011;8544;51.312;12.276;2022-12-18T09:07:24;5.57;;;5.47;;
16856;SDS011;8544;51.312;12.276;2022-12-18T09:09:52;5.73;;;5.53;;
16856;SDS011;8544;51.312;12.276;2022-12-18T09:12:19;6.27;;;6.07;;
16856;SDS011;8544;51.312;12.276;2022-12-18T09:14:47;5.73;;;5.63;;
16856;SDS011;8544;51.312;12.276;2022-12-18T09:17:15;5.20;;;5.10;;
16856;SDS011;8544;51.312;12.276;2022-12-18T09:19:42;5.20;;;5.10;;
16856;SDS011;8544;51.312;12.276;2022-12-18T09:22:10;9.73;;;7.20;;
16856;SDS011;8544;51.312;12.276;2022-12-18T09:24:39;5.10;;;5.00;;
16856;SDS011;8544;51.312;12.276;2022-12-18T09:27:07;5.10;;;5.00;;
16856;SDS011;8544;51.312;12.276;2022-12-18T09:29:35;6.17;;;5.97;;
16856;SDS011;8544;51.312;12.276;2022-12-18T09:32:03;5.67;;;5.47;;
16856;SDS011;8544;51.312;12.276;2022-12-18T09:34:31;6.10;;;5.90;;
16856;SDS011;8544;51.312;12.276;2022-12-18T09:36:58;6.40;;;6.20;;
16856;SDS011;8544;51.312;12.276;2022-12-18T09:39:26;5.87;;;5.67;;
16856;SDS011;8544;51.312;12.276;2022-12-18T09:41:56;5.90;;;5.73;;
16856;SDS011;8544;51.312;12.276;2022-12-18T09:44:25;6.00;;;5.90;;
16856;SDS011;8544;51.312;12.276;2022-12-18T09:46:58;7.20;;;7.00;;
16856;SDS011;8544;51.312;12.276;2022-12-18T09:49:29;6.87;;;6.67;;
16856;SDS011;8544;51.312;12.276;2022-12-18T09:51:59;5.73;;;5.63;;
16856;SDS011;8544;51.312;12.276;2022-12-18T09:54:30;7.53;;;7.13;;
16856;SDS011;8544;51.312;12.276;2022-12-18T09:57:01;5.77;;;5.63;;
16856;SDS011;8544;51.312;12.276;2022-12-18T09:59:30;8.50;;;7.90;;
16856;SDS011;8544;51.312;12.276;2022-12-18T10:01:59;6.83;;;6.63;;
16856;SDS011;8544;51.312;12.276;2022-12-18T10:04:27;7.20;;;6.90;;
16856;SDS011;8544;51.312;12.276;2022-12-18T10:06:59;6.70;;;6.37;;
16856;SDS011;8544;51.312;12.276;2022-12-18T10:09:37;7.00;;;6.73;;
16856;SDS011;8544;51.312;12.276;2022-12-18T10:12:08;6.37;;;6.17;;
16856;SDS011;8544;51.312;12.276;2022-12-18T10:14:42;6.00;;;5.80;;
16856;SDS011;8544;51.312;12.276;2022-12-18T10:17:14;5.70;;;5.60;;
16856;SDS011;8544;51.312;12.276;2022-12-18T10:19:45;6.30;;;6.10;;
16856;SDS011;8544;51.312;12.276;2022-12-18T10:22:19;7.00;;;6.80;;
16856;SDS011;8544;51.312;12.276;2022-12-18T10:24:53;5.63;;;5.53;;
16856;SDS011;8544;51.312;12.276;2022-12-18T10:27:25;5.30;;;5.20;;
16856;SDS011;8544;51.312;12.276;2022-12-18T10:29:54;6.27;;;6.07;;
16856;SDS011;8544;51.312;12.276;2022-12-18T10:32:22;6.97;;;6.67;;
16856;SDS011;8544;51.312;12.276;2022-12-18T10:34:52;5.27;;;5.17;;
16856;SDS011;8544;51.312;12.276;2022-12-18T10:37:26;7.30;;;7.03;;
16856;SDS011;8544;51.312;12.276;2022-12-18T10:40:11;9.10;;;8.50;;
16856;SDS011;8544;51.312;12.276;2022-12-18T10:42:49;7.37;;;7.13;;
16856;SDS011;8544;51.312;12.276;2022-12-18T10:45:30;7.47;;;7.20;;
16856;SDS011;8544;51.312;12.276;2022-12-18T10:47:58;6.83;;;6.63;;
16856;SDS011;8544;51.312;12.276;2022-12-18T10:50:28;7.10;;;6.90;;
16856;SDS011;8544;51.312;12.276;2022-12-18T10:53:18;7.00;;;6.80;;
16856;SDS011;8544;51.312;12.276;2022-12-18T10:55:47;5.80;;;5.70;;
16856;SDS011;8544;51.312;12.276;2022-12-18T10:58:19;5.53;;;5.43;;
16856;SDS011;8544;51.312;12.276;2022-12-18T11:01:02;5.23;;;5.13;;
16856;SDS011;8544;51.312;12.276;2022-12-18T11:03:31;6.33;;;6.13;;
16856;SDS011;8544;51.312;12.276;2022-12-18T11:06:02;6.53;;;6.33;;
16856;SDS011;8544;51.312;12.276;2022-12-18T11:08:31;6.60;;;6.40;;
16856;SDS011;8544;51.312;12.276;2022-12-18T11:10:59;5.87;;;5.70;;
16856;SDS011;8544;51.312;12.276;2022-12-18T11:13:29;7.13;;;6.83;;
16856;SDS011;8544;51.312;12.276;2022-12-18T11:15:58;6.37;;;6.17;;
16856;SDS011;8544;51.312;12.276;2022-12-18T11:18:28;5.83;;;5.73;;
16856;SDS011;8544;51.312;12.276;2022-12-18T11:20:56;6.53;;;6.33;;
16856;SDS011;8544;51.312;12.276;2022-12-18T11:23:25;5.73;;;5.63;;
16856;SDS011;8544;51.312;12.276;2022-12-18T11:25:55;6.37;;;6.07;;
16856;SDS011;8544;51.312;12.276;2022-12-18T11:28:25;6.10;;;5.90;;
16856;SDS011;8544;51.312;12.276;2022-12-18T11:33:39;5.80;;;5.70;;
16856;SDS011;8544;51.312;12.276;2022-12-18T11:36:29;5.57;;;5.37;;
16856;SDS011;8544;51.312;12.276;2022-12-18T11:38:59;5.60;;;5.50;;
16856;SDS011;8544;51.312;12.276;2022-12-18T11:41:28;6.87;;;6.30;;
16856;SDS011;8544;51.312;12.276;2022-12-18T11:44:13;5.27;;;5.17;;
16856;SDS011;8544;51.312;12.276;2022-12-18T11:46:44;5.80;;;5.60;;
16856;SDS011;8544;51.312;12.276;2022-12-18T11:49:18;5.60;;;5.50;;
16856;SDS011;8544;51.312;12.276;2022-12-18T11:51:49;5.80;;;5.70;;
16856;SDS011;8544;51.312;12.276;2022-12-18T11:54:17;6.20;;;6.00;;
16856;SDS011;8544;51.312;12.276;2022-12-18T11:56:47;6.50;;;6.30;;
16856;SDS011;8544;51.312;12.276;2022-12-18T11:59:17;6.07;;;5.93;;
16856;SDS011;8544;51.312;12.276;2022-12-18T12:01:50;5.53;;;5.43;;
16856;SDS011;8544;51.312;12.276;2022-12-18T12:04:39;6.53;;;6.33;;
16856;SDS011;8544;51.312;12.276;2022-12-18T12:07:12;6.23;;;6.03;;
16856;SDS011;8544;51.312;12.276;2022-12-18T12:09:45;9.03;;;7.47;;
16856;SDS011;8544;51.312;12.276;2022-12-18T12:12:20;6.13;;;5.93;;
16856;SDS011;8544;51.312;12.276;2022-12-18T12:14:52;5.40;;;5.20;;
16856;SDS011;8544;51.312;12.276;2022-12-18T12:17:26;5.10;;;5.00;;
16856;SDS011;8544;51.312;12.276;2022-12-18T12:20:00;5.63;;;5.43;;
16856;SDS011;8544;51.312;12.276;2022-12-18T12:22:31;5.10;;;5.00;;
16856;SDS011;8544;51.312;12.276;2022-12-18T12:25:05;6.80;;;6.60;;
16856;SDS011;8544;51.312;12.276;2022-12-18T12:27:38;8.23;;;7.93;;
16856;SDS011;8544;51.312;12.276;2022-12-18T12:30:08;7.93;;;7.63;;
16856;SDS011;8544;51.312;12.276;2022-12-18T12:32:40;6.90;;;6.70;;
16856;SDS011;8544;51.312;12.276;2022-12-18T12:35:18;7.73;;;7.47;;
16856;SDS011;8544;51.312;12.276;2022-12-18T12:38:05;6.33;;;6.13;;
16856;SDS011;8544;51.312;12.276;2022-12-18T12:43:20;7.47;;;7.20;;
16856;SDS011;8544;51.312;12.276;2022-12-18T12:45:49;7.40;;;7.10;;
16856;SDS011;8544;51.312;12.276;2022-12-18T12:48:20;6.50;;;6.30;;
16856;SDS011;8544;51.312;12.276;2022-12-18T12:50:51;7.33;;;6.93;;
16856;SDS011;8544;51.312;12.276;2022-12-18T12:53:22;7.67;;;7.40;;
16856;SDS011;8544;51.312;12.276;2022-12-18T14:09:36;6.30;;;6.10;;
16856;SDS011;8544;51.312;12.276;2022-12-18T14:12:06;6.53;;;6.33;;
16856;SDS011;8544;51.312;12.276;2022-12-18T14:14:51;5.63;;;5.53;;
16856;SDS011;8544;51.312;12.276;2022-12-18T14:17:21;7.63;;;7.33;;
16856;SDS011;8544;51.312;12.276;2022-12-18T14:19:51;6.37;;;6.17;;
16856;SDS011;8544;51.312;12.276;2022-12-18T14:22:20;6.30;;;6.07;;
16856;SDS011;8544;51.312;12.276;2022-12-18T14:24:58;6.20;;;6.00;;
16856;SDS011;8544;51.312;12.276;2022-12-18T14:27:36;5.93;;;5.83;;
16856;SDS011;8544;51.312;12.276;2022-12-18T14:30:16;6.93;;;6.63;;
16856;SDS011;8544;51.312;12.276;2022-12-18T14:32:48;6.43;;;6.23;;
16856;SDS011;8544;51.312;12.276;2022-12-18T14:35:26;6.27;;;6.07;;
16856;SDS011;8544;51.312;12.276;2022-12-18T14:38:07;5.80;;;5.70;;
16856;SDS011;8544;51.312;12.276;2022-12-18T14:40:36;6.50;;;6.30;;
16856;SDS011;8544;51.312;12.276;2022-12-18T14:43:08;6.30;;;6.10;;
16856;SDS011;8544;51.312;12.276;2022-12-18T14:45:38;8.30;;;8.00;;
16856;SDS011;8544;51.312;12.276;2022-12-18T14:48:11;7.97;;;7.67;;
16856;SDS011;8544;51.312;12.276;2022-12-18T14:50:54;7.53;;;7.07;;
16856;SDS011;8544;51.312;12.276;2022-12-18T14:53:23;8.30;;;7.80;;
16856;SDS011;8544;51.312;12.276;2022-12-18T14:55:55;8.90;;;8.43;;
16856;SDS011;8544;51.312;12.276;2022-12-18T14:58:23;10.07;;;9.20;;
16856;SDS011;8544;51.312;12.276;2022-12-18T15:00:52;7.97;;;7.67;;
16856;SDS011;8544;51.312;12.276;2022-12-18T15:03:21;9.17;;;8.77;;
16856;SDS011;8544;51.312;12.276;2022-12-18T15:05:50;7.40;;;7.20;;
16856;SDS011;8544;51.312;12.276;2022-12-18T15:08:28;8.37;;;8.00;;
16856;SDS011;8544;51.312;12.276;2022-12-18T15:10:59;8.23;;;7.93;;
16856;SDS011;8544;51.312;12.276;2022-12-18T15:13:28;8.23;;;7.93;;
16856;SDS011;8544;51.312;12.276;2022-12-18T15:15:57;9.03;;;8.57;;
16856;SDS011;8544;51.312;12.276;2022-12-18T15:18:27;8.13;;;7.77;;
16856;SDS011;8544;51.312;12.276;2022-12-18T15:20:57;9.13;;;8.70;;
16856;SDS011;8544;51.312;12.276;2022-12-18T15:23:28;7.63;;;7.37;;
16856;SDS011;8544;51.312;12.276;2022-12-18T15:26:00;9.00;;;8.50;;
16856;SDS011;8544;51.312;12.276;2022-12-18T15:28:34;7.37;;;7.17;;
16856;SDS011;8544;51.312;12.276;2022-12-18T15:31:05;8.43;;;8.03;;
16856;SDS011;8544;51.312;12.276;2022-12-18T15:33:34;7.87;;;7.57;;
16856;SDS011;8544;51.312;12.276;2022-12-18T15:36:04;9.50;;;9.00;;
16856;SDS011;8544;51.312;12.276;2022-12-18T15:38:33;8.43;;;8.03;;
16856;SDS011;8544;51.312;12.276;2022-12-18T15:41:02;9.30;;;8.73;;
16856;SDS011;8544;51.312;12.276;2022-12-18T15:43:34;8.30;;;8.00;;
16856;SDS011;8544;51.312;12.276;2022-12-18T15:46:06;9.13;;;8.73;;
16856;SDS011;8544;51.312;12.276;2022-12-18T15:48:35;9.47;;;8.97;;
16856;SDS011;8544;51.312;12.276;2022-12-18T15:51:13;8.43;;;8.03;;
16856;SDS011;8544;51.312;12.276;2022-12-18T15:53:43;8.70;;;8.37;;
16856;SDS011;8544;51.312;12.276;2022-12-18T15:56:15;8.60;;;8.30;;
16856;SDS011;8544;51.312;12.276;2022-12-18T15:59:04;7.63;;;7.33;;
16856;SDS011;8544;51.312;12.276;2022-12-18T16:01:36;8.23;;;7.93;;
16856;SDS011;8544;51.312;12.276;2022-12-18T16:15:13;8.77;;;8.47;;
16856;SDS011;8544;51.312;12.276;2022-12-18T16:17:50;9.03;;;8.37;;
16856;SDS011;8544;51.312;12.276;2022-12-18T16:20:20;10.43;;;9.73;;
16856;SDS011;8544;51.312;12.276;2022-12-18T16:22:49;9.17;;;8.73;;
16856;SDS011;8544;51.312;12.276;2022-12-18T16:25:25;8.00;;;7.70;;
16856;SDS011;8544;51.312;12.276;2022-12-18T16:28:07;8.40;;;8.07;;
16856;SDS011;8544;51.312;12.276;2022-12-18T16:30:36;9.50;;;8.83;;
16856;SDS011;8544;51.312;12.276;2022-12-18T16:33:05;9.13;;;8.73;;
16856;SDS011;8544;51.312;12.276;2022-12-18T16:35:36;7.03;;;6.83;;
16856;SDS011;8544;51.312;12.276;2022-12-18T16:38:05;7.63;;;7.33;;
16856;SDS011;8544;51.312;12.276;2022-12-18T16:40:39;8.83;;;8.47;;
16856;SDS011;8544;51.312;12.276;2022-12-18T16:43:30;11.03;;;10.43;;
16856;SDS011;8544;51.312;12.276;2022-12-18T16:56:51;6.70;;;6.50;;
16856;SDS011;8544;51.312;12.276;2022-12-18T16:59:27;8.43;;;8.13;;
16856;SDS011;8544;51.312;12.276;2022-12-18T17:02:08;8.30;;;8.00;;
16856;SDS011;8544;51.312;12.276;2022-12-18T17:04:38;7.73;;;7.43;;
16856;SDS011;8544;51.312;12.276;2022-12-18T17:07:23;6.50;;;6.30;;
16856;SDS011;8544;51.312;12.276;2022-12-18T17:10:21;7.60;;;7.30;;
16856;SDS011;8544;51.312;12.276;2022-12-18T17:12:51;7.67;;;7.27;;
16856;SDS011;8544;51.312;12.276;2022-12-18T17:22:35;7.63;;;7.43;;
16856;SDS011;8544;51.312;12.276;2022-12-18T17:25:05;6.37;;;6.17;;
16856;SDS011;8544;51.312;12.276;2022-12-18T17:27:36;9.37;;;8.77;;
16856;SDS011;8544;51.312;12.276;2022-12-18T17:30:11;9.40;;;8.63;;
16856;SDS011;8544;51.312;12.276;2022-12-18T17:32:44;7.37;;;7.17;;
16856;SDS011;8544;51.312;12.276;2022-12-18T17:35:18;6.73;;;6.53;;